createdAt,value
2018-07-21T00:01:36.172Z,97479.82
2018-07-21T00:04:05.335Z,97487.91
2018-07-21T00:06:34.499Z,97493.41
2018-07-21T00:09:03.932Z,97495.55
2018-07-21T00:11:33.099Z,97491.84
2018-07-21T00:14:02.302Z,97494.56
2018-07-21T00:16:31.425Z,97497.87
2018-07-21T00:19:00.592Z,97500.27
2018-07-21T00:21:29.516Z,97500.39
2018-07-21T00:23:58.670Z,97499.34
2018-07-21T00:26:31.905Z,97500.85
2018-07-21T00:29:01.053Z,97496.77
2018-07-21T00:31:30.191Z,97492.67
2018-07-21T00:33:59.382Z,97500.85
2018-07-21T00:36:28.584Z,97507.06
2018-07-21T00:38:57.707Z,97505.91
2018-07-21T00:41:26.851Z,97506.76
2018-07-21T00:43:55.996Z,97504.59
2018-07-21T00:46:25.134Z,97505.57
2018-07-21T00:48:54.279Z,97504.66
2018-07-21T00:51:23.540Z,97506.13
2018-07-21T00:53:52.451Z,97508.08
2018-07-21T00:56:21.604Z,97513.16
2018-07-21T00:58:50.752Z,97516.56
2018-07-21T01:01:19.900Z,97514.38
2018-07-21T01:03:49.050Z,97521.02
2018-07-21T01:06:18.206Z,97523.67
2018-07-21T01:08:47.375Z,97516.97
2018-07-21T01:11:16.581Z,97516.11
2018-07-21T01:13:45.752Z,97519.19
2018-07-21T01:16:14.929Z,97514.66
2018-07-21T01:18:44.099Z,97515.00
2018-07-21T01:21:13.295Z,97505.98
2018-07-21T01:23:42.242Z,97493.13
2018-07-21T01:26:11.431Z,97495.73
2018-07-21T01:28:40.610Z,97494.88
2018-07-21T01:31:09.792Z,97493.58
2018-07-21T01:33:38.971Z,97495.53
2018-07-21T01:36:08.139Z,97492.55
2018-07-21T01:38:37.379Z,97493.47
2018-07-21T01:41:06.319Z,97494.08
2018-07-21T01:43:35.531Z,97496.39
2018-07-21T01:46:04.875Z,97490.84
2018-07-21T01:48:33.805Z,97490.16
2018-07-21T01:51:02.983Z,97487.84
2018-07-21T01:53:32.160Z,97486.91
2018-07-21T01:56:01.345Z,97490.16
2018-07-21T01:58:30.286Z,97483.72
2018-07-21T02:00:59.461Z,97485.77
2018-07-21T02:03:28.649Z,97488.80
2018-07-21T02:05:57.824Z,97483.73
2018-07-21T02:08:26.984Z,97474.39
2018-07-21T02:10:56.151Z,97470.95
2018-07-21T02:13:25.358Z,97473.13
2018-07-21T02:15:54.527Z,97475.94
2018-07-21T02:18:23.727Z,97473.36
2018-07-21T02:20:52.898Z,97473.56
2018-07-21T02:23:22.096Z,97475.98
2018-07-21T02:25:51.295Z,97477.42
2018-07-21T02:28:20.476Z,97477.27
2018-07-21T02:30:49.668Z,97473.88
2018-07-21T02:33:18.835Z,97478.87
2018-07-21T02:35:48.007Z,97480.84
2018-07-21T02:38:17.197Z,97477.83
2018-07-21T02:40:46.159Z,97480.66
2018-07-21T02:43:15.341Z,97476.41
2018-07-21T02:45:44.579Z,97475.44
2018-07-21T02:48:13.744Z,97474.83
2018-07-21T02:50:42.956Z,97473.66
2018-07-21T02:53:12.140Z,97473.66
2018-07-21T02:55:41.320Z,97477.02
2018-07-21T02:58:10.508Z,97478.73
2018-07-21T03:00:39.681Z,97478.73
2018-07-21T03:03:08.887Z,97481.74
2018-07-21T03:05:38.067Z,97478.71
2018-07-21T03:08:07.566Z,97478.12
2018-07-21T03:10:36.482Z,97476.14
2018-07-21T03:13:05.634Z,97476.60
2018-07-21T03:15:34.791Z,97480.77
2018-07-21T03:18:03.932Z,97491.39
2018-07-21T03:20:33.086Z,97484.25
2018-07-21T03:23:02.223Z,97482.56
2018-07-21T03:25:31.383Z,97480.86
2018-07-21T03:28:00.539Z,97477.03
2018-07-21T03:30:29.697Z,97478.73
2018-07-21T03:32:58.863Z,97478.30
2018-07-21T03:35:28.016Z,97471.80
2018-07-21T03:37:57.183Z,97471.41
2018-07-21T03:40:26.367Z,97476.32
2018-07-21T03:42:55.526Z,97474.77
2018-07-21T03:45:24.671Z,97474.33
2018-07-21T03:47:53.823Z,97474.02
2018-07-21T03:50:22.979Z,97477.92
2018-07-21T03:52:52.134Z,97478.30
2018-07-21T03:55:21.295Z,97480.70
2018-07-21T03:57:50.464Z,97480.28
2018-07-21T04:00:19.595Z,97471.48
2018-07-21T04:02:48.768Z,97467.16
2018-07-21T04:05:17.910Z,97464.69
2018-07-21T04:07:47.067Z,97463.78
2018-07-21T04:10:15.991Z,97466.20
2018-07-21T04:12:45.143Z,97463.62
2018-07-21T04:15:14.303Z,97470.53
2018-07-21T04:17:43.461Z,97470.42
2018-07-21T04:20:12.643Z,97464.67
2018-07-21T04:22:41.785Z,97469.81
2018-07-21T04:25:11.091Z,97466.33
2018-07-21T04:27:40.234Z,97476.08
2018-07-21T04:30:09.388Z,97478.49
2018-07-21T04:32:38.544Z,97485.53
2018-07-21T04:35:07.705Z,97487.02
2018-07-21T04:37:36.855Z,97491.23
2018-07-21T04:40:06.426Z,97495.79
2018-07-21T04:42:35.554Z,97488.90
2018-07-21T04:45:04.703Z,97497.41
2018-07-21T04:50:30.588Z,97497.27
2018-07-21T04:52:59.712Z,97506.18
2018-07-21T04:55:28.836Z,97510.58
2018-07-21T04:57:57.971Z,97523.21
2018-07-21T05:00:27.095Z,97525.57
2018-07-21T05:02:56.281Z,97532.39
2018-07-21T05:05:25.403Z,97527.84
2018-07-21T05:07:54.557Z,97525.50
2018-07-21T05:10:23.680Z,97534.02
2018-07-21T05:12:52.804Z,97534.80
2018-07-21T05:15:21.932Z,97539.63
2018-07-21T05:17:50.827Z,97549.95
2018-07-21T05:20:19.759Z,97547.71
2018-07-21T05:22:48.877Z,97549.26
2018-07-21T05:25:17.992Z,97549.83
2018-07-21T05:27:47.124Z,97553.69
2018-07-21T05:30:16.241Z,97554.65
2018-07-21T05:32:45.368Z,97559.39
2018-07-21T05:35:14.484Z,97566.17
2018-07-21T05:37:43.619Z,97570.83
2018-07-21T05:40:12.745Z,97577.91
2018-07-21T05:42:41.869Z,97579.29
2018-07-21T05:45:11.058Z,97576.34
2018-07-21T05:47:40.140Z,97577.36
2018-07-21T05:50:09.273Z,97581.95
2018-07-21T05:52:38.396Z,97586.38
2018-07-21T05:55:07.532Z,97584.77
2018-07-21T05:57:36.660Z,97586.72
2018-07-21T06:00:09.841Z,97586.25
2018-07-21T06:02:38.978Z,97589.14
2018-07-21T06:05:08.323Z,97583.96
2018-07-21T06:07:37.447Z,97587.42
2018-07-21T06:10:06.596Z,97596.34
2018-07-21T06:12:35.931Z,97596.19
2018-07-21T06:15:05.383Z,97599.66
2018-07-21T06:17:34.530Z,97596.05
2018-07-21T06:20:03.696Z,97596.96
2018-07-21T06:22:32.824Z,97603.23
2018-07-21T06:25:01.955Z,97602.67
2018-07-21T06:27:31.103Z,97610.39
2018-07-21T06:30:00.229Z,97599.34
2018-07-21T06:32:29.360Z,97601.65
2018-07-21T06:34:58.504Z,97601.13
2018-07-21T06:37:27.636Z,97593.47
2018-07-21T06:39:56.783Z,97591.27
2018-07-21T06:42:26.049Z,97592.34
2018-07-21T06:44:55.201Z,97597.33
2018-07-21T06:47:24.324Z,97599.23
2018-07-21T06:49:53.476Z,97599.80
2018-07-21T06:52:22.631Z,97600.20
2018-07-21T06:54:51.766Z,97604.89
2018-07-21T06:57:20.888Z,97605.66
2018-07-21T06:59:50.032Z,97604.98
2018-07-21T07:02:19.153Z,97604.89
2018-07-21T07:04:48.289Z,97611.11
2018-07-21T07:07:17.412Z,97605.81
2018-07-21T07:09:46.556Z,97614.59
2018-07-21T07:12:15.705Z,97615.94
2018-07-21T07:14:45.164Z,97620.48
2018-07-21T07:17:14.284Z,97621.23
2018-07-21T07:19:43.433Z,97622.73
2018-07-21T07:22:12.571Z,97623.97
2018-07-21T07:24:41.721Z,97626.59
2018-07-21T07:27:10.840Z,97624.79
2018-07-21T07:29:40.002Z,97626.14
2018-07-21T07:32:09.141Z,97625.46
2018-07-21T07:34:38.267Z,97620.48
2018-07-21T07:37:07.788Z,97630.85
2018-07-21T07:39:36.944Z,97623.50
2018-07-21T07:42:06.152Z,97621.15
2018-07-21T07:44:35.232Z,97626.17
2018-07-21T07:47:04.373Z,97628.65
2018-07-21T07:49:33.502Z,97622.13
2018-07-21T07:52:02.637Z,97623.29
2018-07-21T07:54:31.760Z,97626.59
2018-07-21T07:57:00.901Z,97624.33
2018-07-21T07:59:30.037Z,97620.72
2018-07-21T08:01:59.177Z,97616.62
2018-07-21T08:04:28.304Z,97622.19
2018-07-21T08:06:57.441Z,97624.72
2018-07-21T08:09:26.567Z,97626.66
2018-07-21T08:11:55.693Z,97629.70
2018-07-21T08:14:24.825Z,97626.66
2018-07-21T08:16:53.956Z,97628.89
2018-07-21T08:19:23.110Z,97631.92
2018-07-21T08:21:52.232Z,97631.67
2018-07-21T08:24:21.395Z,97638.34
2018-07-21T08:26:50.532Z,97642.68
2018-07-21T08:29:19.661Z,97644.67
2018-07-21T08:31:48.813Z,97643.39
2018-07-21T08:34:17.947Z,97649.30
2018-07-21T08:36:47.082Z,97646.98
2018-07-21T08:39:16.193Z,97652.73
2018-07-21T08:41:45.346Z,97654.55
2018-07-21T08:44:14.471Z,97657.83
2018-07-21T08:46:43.599Z,97661.52
2018-07-21T08:49:12.740Z,97671.53
2018-07-21T08:51:41.873Z,97665.53
2018-07-21T08:54:11.007Z,97667.26
2018-07-21T08:56:40.220Z,97667.38
2018-07-21T08:59:09.351Z,97673.42
2018-07-21T09:01:38.465Z,97667.03
2018-07-21T09:04:07.768Z,97670.70
2018-07-21T09:06:36.891Z,97678.80
2018-07-21T09:09:08.674Z,97677.17
2018-07-21T09:11:37.797Z,97682.98
2018-07-21T09:14:06.930Z,97681.16
2018-07-21T09:16:36.050Z,97682.46
2018-07-21T09:19:05.441Z,97686.80
2018-07-21T09:21:34.382Z,97691.41
2018-07-21T09:24:03.516Z,97694.88
2018-07-21T09:26:32.820Z,97688.00
2018-07-21T09:29:01.827Z,97695.11
2018-07-21T09:31:31.455Z,97698.68
2018-07-21T09:34:00.801Z,97703.00
2018-07-21T09:36:29.930Z,97708.70
2018-07-21T09:38:58.867Z,97705.97
2018-07-21T09:41:28.009Z,97702.16
2018-07-21T09:43:56.936Z,97707.91
2018-07-21T09:46:26.070Z,97705.67
2018-07-21T09:48:55.204Z,97710.59
2018-07-21T09:51:24.400Z,97711.16
2018-07-21T09:53:53.475Z,97712.13
2018-07-21T09:59:31.090Z,97709.41
2018-07-21T10:02:00.356Z,97711.66
2018-07-21T10:04:29.501Z,97720.30
2018-07-21T10:06:58.646Z,97717.83
2018-07-21T10:09:27.772Z,97711.73
2018-07-21T10:11:56.923Z,97719.73
2018-07-21T10:14:26.049Z,97726.44
2018-07-21T10:16:55.189Z,97722.33
2018-07-21T10:19:24.313Z,97721.73
2018-07-21T10:21:53.494Z,97724.31
2018-07-21T10:24:27.848Z,97726.06
2018-07-21T10:27:02.168Z,97725.97
2018-07-21T10:29:31.319Z,97731.42
2018-07-21T10:32:00.241Z,97726.97
2018-07-21T10:34:29.369Z,97724.66
2018-07-21T10:36:58.517Z,97734.88
2018-07-21T10:39:27.634Z,97730.70
2018-07-21T10:41:56.765Z,97735.16
2018-07-21T10:44:25.913Z,97740.59
2018-07-21T10:46:55.115Z,97735.19
2018-07-21T10:49:23.991Z,97735.39
2018-07-21T10:51:53.137Z,97741.36
2018-07-21T10:54:22.264Z,97741.55
2018-07-21T10:56:51.409Z,97742.47
2018-07-21T10:59:20.565Z,97739.88
2018-07-21T11:01:49.724Z,97735.76
2018-07-21T11:04:18.873Z,97734.75
2018-07-21T11:06:48.002Z,97739.74
2018-07-21T11:09:17.140Z,97740.45
2018-07-21T11:11:46.281Z,97742.78
2018-07-21T11:14:15.420Z,97744.31
2018-07-21T11:16:44.544Z,97744.92
2018-07-21T11:19:13.685Z,97742.98
2018-07-21T11:21:42.809Z,97745.22
2018-07-21T11:24:11.936Z,97746.42
2018-07-21T11:26:41.056Z,97748.62
2018-07-21T11:29:10.188Z,97749.69
2018-07-21T11:31:39.697Z,97748.83
2018-07-21T11:34:08.864Z,97749.86
2018-07-21T11:36:38.052Z,97755.41
2018-07-21T11:39:08.226Z,97753.11
2018-07-21T11:41:37.365Z,97752.98
2018-07-21T11:44:06.501Z,97757.20
2018-07-21T11:46:35.429Z,97758.60
2018-07-21T11:49:04.568Z,97757.06
2018-07-21T11:51:33.698Z,97754.38
2018-07-21T11:54:02.612Z,97759.40
2018-07-21T11:56:31.753Z,97760.41
2018-07-21T11:59:00.932Z,97761.27
2018-07-21T12:01:30.048Z,97755.69
2018-07-21T12:03:59.217Z,97761.47
2018-07-21T12:06:28.333Z,97755.28
2018-07-21T12:08:57.484Z,97750.96
2018-07-21T12:11:26.620Z,97754.16
2018-07-21T12:13:55.757Z,97756.41
2018-07-21T12:16:24.889Z,97750.94
2018-07-21T12:18:54.017Z,97755.86
2018-07-21T12:21:23.149Z,97763.83
2018-07-21T12:23:52.276Z,97757.44
2018-07-21T12:26:21.423Z,97760.79
2018-07-21T12:28:50.569Z,97758.33
2018-07-21T12:31:19.705Z,97761.31
2018-07-21T12:33:48.850Z,97766.13
2018-07-21T12:36:17.986Z,97759.05
2018-07-21T12:38:47.153Z,97772.79
2018-07-21T12:41:16.304Z,97766.59
2018-07-21T12:43:45.458Z,97769.61
2018-07-21T12:46:14.584Z,97769.68
2018-07-21T12:48:43.710Z,97766.55
2018-07-21T12:51:12.622Z,97770.95
2018-07-21T12:53:41.755Z,97764.62
2018-07-21T12:56:10.900Z,97767.00
2018-07-21T12:58:40.020Z,97770.07
2018-07-21T13:01:09.156Z,97768.73
2018-07-21T13:03:38.284Z,97773.84
2018-07-21T13:06:07.469Z,97776.46
2018-07-21T13:08:36.375Z,97777.49
2018-07-21T13:11:05.522Z,97781.63
2018-07-21T13:13:34.648Z,97774.67
2018-07-21T13:16:03.595Z,97776.08
2018-07-21T13:18:32.699Z,97777.31
2018-07-21T13:21:01.837Z,97779.50
2018-07-21T13:23:30.756Z,97780.38
2018-07-21T13:25:59.889Z,97783.36
2018-07-21T13:28:29.012Z,97779.23
2018-07-21T13:30:57.931Z,97781.16
2018-07-21T13:33:27.069Z,97777.69
2018-07-21T13:35:56.192Z,97778.73
2018-07-21T13:38:25.400Z,97780.38
2018-07-21T13:40:54.541Z,97779.03
2018-07-21T13:43:24.103Z,97785.78
2018-07-21T13:45:53.049Z,97785.02
2018-07-21T13:48:22.159Z,97785.29
2018-07-21T13:50:51.301Z,97788.36
2018-07-21T13:53:20.437Z,97775.08
2018-07-21T13:55:49.572Z,97775.81
2018-07-21T13:58:18.721Z,97773.80
2018-07-21T14:00:47.855Z,97769.36
2018-07-21T14:03:17.011Z,97765.17
2018-07-21T14:05:46.139Z,97763.61
2018-07-21T14:08:15.277Z,97764.02
2018-07-21T14:10:44.412Z,97755.75
2018-07-21T14:13:13.558Z,97752.13
2018-07-21T14:15:42.701Z,97758.47
2018-07-21T14:18:11.850Z,97750.34
2018-07-21T14:20:40.987Z,97749.25
2018-07-21T14:23:10.143Z,97754.47
2018-07-21T14:25:39.296Z,97750.73
2018-07-21T14:28:08.428Z,97746.34
2018-07-21T14:30:37.554Z,97743.42
2018-07-21T14:33:06.830Z,97738.33
2018-07-21T14:35:35.949Z,97733.18
2018-07-21T14:38:05.323Z,97734.76
2018-07-21T14:40:34.232Z,97732.05
2018-07-21T14:43:03.404Z,97728.99
2018-07-21T14:45:32.534Z,97722.81
2018-07-21T14:48:01.689Z,97723.75
2018-07-21T14:50:30.868Z,97724.28
2018-07-21T14:53:00.004Z,97720.08
2018-07-21T14:55:28.919Z,97722.50
2018-07-21T14:57:58.053Z,97721.79
2018-07-21T15:00:27.184Z,97720.75
2018-07-21T15:02:56.090Z,97714.29
2018-07-21T15:05:25.221Z,97718.30
2018-07-21T15:07:54.373Z,97713.30
2018-07-21T15:10:23.514Z,97719.28
2018-07-21T15:12:52.661Z,97718.90
2018-07-21T15:15:21.792Z,97719.50
2018-07-21T15:17:51.043Z,97722.58
2018-07-21T15:20:20.170Z,97719.50
2018-07-21T15:22:49.306Z,97725.19
2018-07-21T15:25:18.440Z,97729.04
2018-07-21T15:27:47.593Z,97729.11
2018-07-21T15:30:16.741Z,97731.23
2018-07-21T15:32:45.874Z,97729.68
2018-07-21T15:35:15.010Z,97727.20
2018-07-21T15:37:44.169Z,97728.34
2018-07-21T15:40:14.140Z,97729.86
2018-07-21T15:42:43.279Z,97725.67
2018-07-21T15:45:12.452Z,97732.38
2018-07-21T15:47:41.716Z,97726.67
2018-07-21T15:50:10.823Z,97726.70
2018-07-21T15:52:39.744Z,97725.88
2018-07-21T15:55:08.898Z,97723.75
2018-07-21T15:57:38.035Z,97725.23
2018-07-21T16:00:07.511Z,97720.44
2018-07-21T16:02:36.669Z,97724.61
2018-07-21T16:05:05.849Z,97726.03
2018-07-21T16:07:34.986Z,97723.60
2018-07-21T16:10:04.618Z,97721.77
2018-07-21T16:12:33.760Z,97720.80
2018-07-21T16:15:03.870Z,97721.73
2018-07-21T16:17:32.145Z,97723.55
2018-07-21T16:20:01.277Z,97719.90
2018-07-21T16:22:30.428Z,97718.95
2018-07-21T16:24:59.567Z,97721.16
2018-07-21T16:27:28.705Z,97721.16
2018-07-21T16:29:57.834Z,97725.29
2018-07-21T16:32:27.020Z,97727.91
2018-07-21T16:34:56.191Z,97723.48
2018-07-21T16:37:25.104Z,97717.82
2018-07-21T16:39:54.269Z,97714.00
2018-07-21T16:42:23.190Z,97721.37
2018-07-21T16:44:52.342Z,97716.59
2018-07-21T16:47:21.484Z,97708.82
2018-07-21T16:49:50.621Z,97708.44
2018-07-21T16:52:19.771Z,97710.11
2018-07-21T16:54:48.907Z,97697.33
2018-07-21T16:57:18.034Z,97696.83
2018-07-21T16:59:46.970Z,97699.48
2018-07-21T17:02:16.123Z,97693.35
2018-07-21T17:04:45.275Z,97691.11
2018-07-21T17:07:14.416Z,97694.31
2018-07-21T17:09:43.659Z,97693.84
2018-07-21T17:12:12.793Z,97693.39
2018-07-21T17:14:41.948Z,97692.42
2018-07-21T17:17:11.133Z,97697.47
2018-07-21T17:19:40.241Z,97704.45
2018-07-21T17:22:09.428Z,97704.31
2018-07-21T17:24:38.578Z,97710.52
2018-07-21T17:27:07.716Z,97715.66
2018-07-21T17:29:36.886Z,97711.11
2018-07-21T17:32:06.293Z,97708.84
2018-07-21T17:34:35.432Z,97710.14
2018-07-21T17:37:04.601Z,97711.48
2018-07-21T17:39:33.741Z,97715.00
2018-07-21T17:42:02.897Z,97707.41
2018-07-21T17:44:32.082Z,97710.67
2018-07-21T17:47:01.222Z,97718.27
2018-07-21T17:49:30.357Z,97710.09
2018-07-21T17:51:59.501Z,97712.94
2018-07-21T17:54:28.640Z,97715.59
2018-07-21T17:56:57.789Z,97711.73
2018-07-21T17:59:26.936Z,97707.58
2018-07-21T18:01:55.987Z,97704.16
2018-07-21T18:04:25.125Z,97703.22
2018-07-21T18:06:54.276Z,97699.37
2018-07-21T18:09:23.425Z,97704.03
2018-07-21T18:11:52.582Z,97700.95
2018-07-21T18:14:21.807Z,97708.52
2018-07-21T18:16:50.641Z,97710.57
2018-07-21T18:19:19.779Z,97716.19
2018-07-21T18:21:48.958Z,97723.02
2018-07-21T18:24:18.098Z,97724.64
2018-07-21T18:26:47.007Z,97723.80
2018-07-21T18:29:16.149Z,97721.91
2018-07-21T18:31:45.332Z,97724.92
2018-07-21T18:34:14.449Z,97726.72
2018-07-21T18:36:43.586Z,97725.55
2018-07-21T18:39:13.193Z,97731.00
2018-07-21T18:41:42.355Z,97730.55
2018-07-21T18:44:11.485Z,97732.59
2018-07-21T18:46:40.625Z,97731.96
2018-07-21T18:49:09.761Z,97732.94
2018-07-21T18:51:38.883Z,97730.67
2018-07-21T18:54:08.025Z,97731.38
2018-07-21T18:56:37.164Z,97735.94
2018-07-21T18:59:06.130Z,97733.75
2018-07-21T19:01:35.272Z,97738.73
2018-07-21T19:04:04.418Z,97739.44
2018-07-21T19:06:33.554Z,97735.71
2018-07-21T19:09:05.201Z,97733.69
2018-07-21T19:11:34.348Z,97737.63
2018-07-21T19:14:03.495Z,97742.67
2018-07-21T19:16:40.153Z,97741.09
2018-07-21T19:19:09.396Z,97745.02
2018-07-21T19:21:38.587Z,97746.17
2018-07-21T19:24:07.677Z,97750.44
2018-07-21T19:26:42.060Z,97749.33
2018-07-21T19:29:11.205Z,97749.53
2018-07-21T19:31:44.452Z,97752.17
2018-07-21T19:34:13.577Z,97755.66
2018-07-21T19:36:42.708Z,97759.34
2018-07-21T19:39:11.861Z,97769.84
2018-07-21T19:41:46.395Z,97767.73
2018-07-21T19:44:15.545Z,97775.02
2018-07-21T19:46:44.678Z,97776.30
2018-07-21T19:49:13.817Z,97782.09
2018-07-21T19:51:42.954Z,97775.09
2018-07-21T19:54:12.095Z,97784.41
2018-07-21T19:56:41.291Z,97780.23
2018-07-21T19:59:10.157Z,97787.88
2018-07-21T20:01:39.301Z,97783.91
2018-07-21T20:04:08.484Z,97791.59
2018-07-21T20:06:37.577Z,97788.50
2018-07-21T20:09:08.667Z,97789.05
2018-07-21T20:11:38.068Z,97796.06
2018-07-21T20:14:06.977Z,97796.77
2018-07-21T20:16:36.126Z,97800.69
2018-07-21T20:19:05.256Z,97797.30
2018-07-21T20:21:34.474Z,97801.90
2018-07-21T20:24:03.550Z,97797.51
2018-07-21T20:26:32.459Z,97796.65
2018-07-21T20:29:01.611Z,97800.38
2018-07-21T20:31:30.757Z,97808.19
2018-07-21T20:33:59.891Z,97799.22
2018-07-21T20:36:29.032Z,97804.80
2018-07-21T20:38:58.175Z,97801.36
2018-07-21T20:41:27.346Z,97802.69
2018-07-21T20:43:56.483Z,97808.48
2018-07-21T20:46:25.644Z,97801.03
2018-07-21T20:48:54.776Z,97805.03
2018-07-21T20:51:23.927Z,97804.75
2018-07-21T20:53:53.065Z,97805.63
2018-07-21T20:56:22.197Z,97806.77
2018-07-21T20:58:51.121Z,97810.95
2018-07-21T21:01:20.245Z,97803.25
2018-07-21T21:03:49.388Z,97808.95
2018-07-21T21:06:18.575Z,97808.18
2018-07-21T21:08:47.682Z,97807.30
2018-07-21T21:11:16.816Z,97809.52
2018-07-21T21:13:45.958Z,97810.56
2018-07-21T21:16:14.860Z,97808.79
2018-07-21T21:18:43.993Z,97813.01
2018-07-21T21:21:13.121Z,97810.78
2018-07-21T21:23:42.254Z,97815.03
2018-07-21T21:26:11.387Z,97812.35
2018-07-21T21:28:40.537Z,97814.80
2018-07-21T21:31:09.513Z,97812.48
2018-07-21T21:33:38.585Z,97808.59
2018-07-21T21:36:07.726Z,97815.01
2018-07-21T21:38:36.880Z,97812.58
2018-07-21T21:41:06.021Z,97812.91
2018-07-21T21:43:35.172Z,97809.34
2018-07-21T21:46:04.310Z,97812.98
2018-07-21T21:48:33.465Z,97815.93
2018-07-21T21:51:02.605Z,97803.60
2018-07-21T21:53:31.745Z,97808.93
2018-07-21T21:56:00.886Z,97808.36
2018-07-21T21:58:30.024Z,97809.89
2018-07-21T22:01:06.411Z,97806.58
2018-07-21T22:03:35.841Z,97812.13
2018-07-21T22:06:05.106Z,97811.13
2018-07-21T22:08:34.477Z,97817.05
2018-07-21T22:11:04.147Z,97821.02
2018-07-21T22:13:33.277Z,97814.60
2018-07-21T22:16:02.417Z,97813.77
2018-07-21T22:18:31.956Z,97814.84
2018-07-21T22:21:00.863Z,97810.05
2018-07-21T22:23:29.998Z,97818.19
2018-07-21T22:25:59.136Z,97817.90
2018-07-21T22:28:28.067Z,97819.71
2018-07-21T22:30:57.201Z,97807.84
2018-07-21T22:33:26.349Z,97809.50
2018-07-21T22:35:55.528Z,97814.58
2018-07-21T22:38:24.690Z,97816.62
2018-07-21T22:40:53.831Z,97814.50
2018-07-21T22:43:23.044Z,97817.45
2018-07-21T22:45:52.144Z,97817.45
2018-07-21T22:48:21.268Z,97815.77
2018-07-21T22:50:50.405Z,97820.14
2018-07-21T22:53:19.556Z,97820.89
2018-07-21T22:55:48.690Z,97821.82
2018-07-21T22:58:17.827Z,97819.99
2018-07-21T23:00:46.961Z,97817.35
2018-07-21T23:03:16.104Z,97815.02
2018-07-21T23:05:45.254Z,97815.71
2018-07-21T23:08:14.401Z,97818.05
2018-07-21T23:10:43.562Z,97811.20
2018-07-21T23:13:12.476Z,97809.14
2018-07-21T23:15:41.601Z,97809.64
2018-07-21T23:18:10.756Z,97811.18
2018-07-21T23:20:39.739Z,97807.33
2018-07-21T23:23:08.646Z,97806.05
2018-07-21T23:25:37.810Z,97807.86
2018-07-21T23:28:06.937Z,97810.34
2018-07-21T23:31:05.887Z,97809.75
2018-07-21T23:33:35.078Z,97810.70
2018-07-21T23:36:04.221Z,97805.28
2018-07-21T23:38:33.386Z,97806.90
2018-07-21T23:41:02.548Z,97811.03
2018-07-21T23:43:31.693Z,97809.58
2018-07-21T23:46:00.826Z,97803.24
2018-07-21T23:48:29.958Z,97804.94
2018-07-21T23:50:59.094Z,97804.20
2018-07-21T23:53:28.225Z,97800.77
2018-07-21T23:55:57.408Z,97802.99
2018-07-21T23:58:26.554Z,97791.72
